createdAt,value
2018-12-31T00:00:03.008Z,0.00
2018-12-31T00:01:03.152Z,0.00
2018-12-31T00:02:03.286Z,0.00
2018-12-31T00:03:03.434Z,0.00
2018-12-31T00:04:03.585Z,0.00
2018-12-31T00:05:03.728Z,0.00
2018-12-31T00:06:03.872Z,0.00
2018-12-31T00:07:04.019Z,0.00
2018-12-31T00:08:04.167Z,0.00
2018-12-31T00:09:04.312Z,0.00
2018-12-31T00:10:04.456Z,0.00
2018-12-31T00:11:04.605Z,0.00
2018-12-31T00:12:04.751Z,0.00
2018-12-31T00:13:04.896Z,0.00
2018-12-31T00:14:05.041Z,0.00
2018-12-31T00:15:05.186Z,0.00
2018-12-31T00:16:05.335Z,0.00
2018-12-31T00:17:05.482Z,0.00
2018-12-31T00:18:05.631Z,0.00
2018-12-31T00:19:05.776Z,0.00
2018-12-31T00:20:05.921Z,0.00
2018-12-31T00:21:06.068Z,0.00
2018-12-31T00:22:06.212Z,0.00
2018-12-31T00:23:06.358Z,0.00
2018-12-31T00:24:06.506Z,0.00
2018-12-31T00:25:06.654Z,0.00
2018-12-31T00:26:06.795Z,0.00
2018-12-31T00:27:06.946Z,0.00
2018-12-31T00:28:07.091Z,0.00
2018-12-31T00:29:07.236Z,0.00
2018-12-31T00:30:07.381Z,0.00
2018-12-31T00:31:07.529Z,0.00
2018-12-31T00:32:07.673Z,0.00
2018-12-31T00:33:07.844Z,0.00
2018-12-31T00:34:08.006Z,0.00
2018-12-31T00:35:08.155Z,0.00
2018-12-31T00:36:08.299Z,0.00
2018-12-31T00:37:08.449Z,0.00
2018-12-31T00:38:08.593Z,0.00
2018-12-31T00:39:08.739Z,0.00
2018-12-31T00:40:08.886Z,0.00
2018-12-31T00:41:09.032Z,0.00
2018-12-31T00:42:09.179Z,0.00
2018-12-31T00:43:09.328Z,0.00
2018-12-31T00:44:09.471Z,0.00
2018-12-31T00:45:09.620Z,0.00
2018-12-31T00:46:09.762Z,0.00
2018-12-31T00:47:09.904Z,0.00
2018-12-31T00:48:10.051Z,0.00
2018-12-31T00:49:10.197Z,0.00
2018-12-31T00:50:10.346Z,0.00
2018-12-31T00:51:10.491Z,0.00
2018-12-31T00:52:10.633Z,0.00
2018-12-31T00:53:10.781Z,0.00
2018-12-31T00:54:10.926Z,0.00
2018-12-31T00:55:11.074Z,0.00
2018-12-31T00:56:11.221Z,0.00
2018-12-31T00:57:11.368Z,0.00
2018-12-31T00:58:11.514Z,0.00
2018-12-31T00:59:11.656Z,0.00
2018-12-31T01:00:11.803Z,0.00
2018-12-31T01:01:11.948Z,0.00
2018-12-31T01:02:12.094Z,0.00
2018-12-31T01:03:12.239Z,0.00
2018-12-31T01:04:12.384Z,0.00
2018-12-31T01:05:12.533Z,0.00
2018-12-31T01:06:12.680Z,0.00
2018-12-31T01:07:12.828Z,0.00
2018-12-31T01:08:12.974Z,0.00
2018-12-31T01:09:13.120Z,0.00
2018-12-31T01:10:13.269Z,0.00
2018-12-31T01:11:13.415Z,0.00
2018-12-31T01:12:13.561Z,0.00
2018-12-31T01:13:13.705Z,0.00
2018-12-31T01:14:13.855Z,0.00
2018-12-31T01:15:13.997Z,0.00
2018-12-31T01:16:14.143Z,0.00
2018-12-31T01:17:14.289Z,0.00
2018-12-31T01:18:14.436Z,0.00
2018-12-31T01:19:14.582Z,0.00
2018-12-31T01:20:14.728Z,0.00
2018-12-31T01:21:14.874Z,0.00
2018-12-31T01:22:15.020Z,0.00
2018-12-31T01:23:15.166Z,0.00
2018-12-31T01:24:15.314Z,0.00
2018-12-31T01:25:15.459Z,0.00
2018-12-31T01:26:15.614Z,0.00
2018-12-31T01:27:15.754Z,0.00
2018-12-31T01:28:15.897Z,0.00
2018-12-31T01:29:16.044Z,0.00
2018-12-31T01:30:16.193Z,0.00
2018-12-31T01:31:16.339Z,0.00
2018-12-31T01:32:16.483Z,0.00
2018-12-31T01:33:16.631Z,0.00
2018-12-31T01:34:16.777Z,0.00
2018-12-31T01:35:16.923Z,0.00
2018-12-31T01:36:17.069Z,0.00
2018-12-31T01:37:17.215Z,0.00
2018-12-31T01:38:17.360Z,0.00
2018-12-31T01:39:17.508Z,0.00
2018-12-31T01:40:17.653Z,0.00
2018-12-31T01:41:17.798Z,0.00
2018-12-31T01:42:17.945Z,0.00
2018-12-31T01:43:18.090Z,0.00
2018-12-31T01:44:18.236Z,0.00
2018-12-31T01:45:18.383Z,0.00
2018-12-31T01:46:18.527Z,0.00
2018-12-31T01:47:18.672Z,0.00
2018-12-31T01:48:18.819Z,0.00
2018-12-31T01:49:18.966Z,0.00
2018-12-31T01:50:19.112Z,0.00
2018-12-31T01:51:19.257Z,0.00
2018-12-31T01:52:19.402Z,0.00
2018-12-31T01:53:19.550Z,0.00
2018-12-31T01:54:19.694Z,0.00
2018-12-31T01:55:19.838Z,0.00
2018-12-31T01:56:19.986Z,0.00
2018-12-31T01:57:20.129Z,0.00
2018-12-31T01:58:20.275Z,0.00
2018-12-31T01:59:20.421Z,0.00
2018-12-31T02:00:20.565Z,0.00
2018-12-31T02:01:20.712Z,0.00
2018-12-31T02:02:20.859Z,0.00
2018-12-31T02:03:21.003Z,0.00
2018-12-31T02:04:21.149Z,0.00
2018-12-31T02:05:21.295Z,0.00
2018-12-31T02:06:21.443Z,0.00
2018-12-31T02:07:21.590Z,0.00
2018-12-31T02:08:21.733Z,0.00
2018-12-31T02:09:21.878Z,0.00
2018-12-31T02:10:22.024Z,0.00
2018-12-31T02:11:22.190Z,0.00
2018-12-31T02:12:22.336Z,0.00
2018-12-31T02:13:22.481Z,0.00
2018-12-31T02:14:22.630Z,0.00
2018-12-31T02:15:22.774Z,0.00
2018-12-31T02:16:22.922Z,0.00
2018-12-31T02:17:23.068Z,0.00
2018-12-31T02:18:23.210Z,0.00
2018-12-31T02:19:23.357Z,0.00
2018-12-31T02:20:23.502Z,0.00
2018-12-31T02:21:23.648Z,0.00
2018-12-31T02:22:23.796Z,0.00
2018-12-31T02:23:23.945Z,0.00
2018-12-31T02:24:24.088Z,0.00
2018-12-31T02:25:24.237Z,0.00
2018-12-31T02:26:24.378Z,0.00
2018-12-31T02:27:24.524Z,0.00
2018-12-31T02:28:24.669Z,0.00
2018-12-31T02:29:24.815Z,0.00
2018-12-31T02:30:24.960Z,0.00
2018-12-31T02:31:25.107Z,0.00
2018-12-31T02:32:25.253Z,0.00
2018-12-31T02:33:25.396Z,0.00
2018-12-31T02:34:25.542Z,0.00
2018-12-31T02:35:25.686Z,0.00
2018-12-31T02:36:25.834Z,0.00
2018-12-31T02:37:25.972Z,0.00
2018-12-31T02:38:26.120Z,0.00
2018-12-31T02:39:26.265Z,0.00
2018-12-31T02:40:26.410Z,0.00
2018-12-31T02:41:26.556Z,0.00
2018-12-31T02:42:26.704Z,0.00
2018-12-31T02:43:26.881Z,0.00
2018-12-31T02:44:26.993Z,0.00
2018-12-31T02:45:27.140Z,0.00
2018-12-31T02:46:27.282Z,0.00
2018-12-31T02:47:27.430Z,0.00
2018-12-31T02:48:27.571Z,0.00
2018-12-31T02:49:27.717Z,0.00
2018-12-31T02:50:27.862Z,0.00
2018-12-31T02:51:28.005Z,0.00
2018-12-31T02:52:28.149Z,0.00
2018-12-31T02:53:28.295Z,0.00
2018-12-31T02:54:28.444Z,0.00
2018-12-31T02:55:28.590Z,0.00
2018-12-31T02:56:28.734Z,0.00
2018-12-31T02:57:28.878Z,0.00
2018-12-31T02:58:29.024Z,0.00
2018-12-31T02:59:29.173Z,0.00
2018-12-31T03:00:29.317Z,0.00
2018-12-31T03:01:29.462Z,0.00
2018-12-31T03:02:29.610Z,0.00
2018-12-31T03:03:29.759Z,0.00
2018-12-31T03:04:29.900Z,0.00
2018-12-31T03:05:30.045Z,0.00
2018-12-31T03:06:30.190Z,0.00
2018-12-31T03:07:30.344Z,0.00
2018-12-31T03:08:30.484Z,0.00
2018-12-31T03:09:30.628Z,0.00
2018-12-31T03:10:30.781Z,0.00
2018-12-31T03:11:30.918Z,0.00
2018-12-31T03:12:31.060Z,0.00
2018-12-31T03:13:31.207Z,0.00
2018-12-31T03:14:31.354Z,0.00
2018-12-31T03:15:31.507Z,0.00
2018-12-31T03:16:31.645Z,0.00
2018-12-31T03:17:31.791Z,0.00
2018-12-31T03:18:31.938Z,0.00
2018-12-31T03:19:32.084Z,0.00
2018-12-31T03:20:32.229Z,0.00
2018-12-31T03:21:32.392Z,0.00
2018-12-31T03:22:32.519Z,0.00
2018-12-31T03:23:32.669Z,0.00
2018-12-31T03:24:32.818Z,0.00
2018-12-31T03:25:32.958Z,0.00
2018-12-31T03:26:33.105Z,0.00
2018-12-31T03:27:33.251Z,0.00
2018-12-31T03:28:33.399Z,0.00
2018-12-31T03:29:33.545Z,0.00
2018-12-31T03:30:33.691Z,0.00
2018-12-31T03:31:33.841Z,0.00
2018-12-31T03:32:33.988Z,0.00
2018-12-31T03:33:34.126Z,0.00
2018-12-31T03:34:34.272Z,0.00
2018-12-31T03:35:34.420Z,0.00
2018-12-31T03:36:34.564Z,0.00
2018-12-31T03:37:34.722Z,0.00
2018-12-31T03:38:34.858Z,0.00
2018-12-31T03:39:35.006Z,0.00
2018-12-31T03:40:35.152Z,0.00
2018-12-31T03:41:35.298Z,0.00
2018-12-31T03:42:35.442Z,0.00
2018-12-31T03:43:35.590Z,0.00
2018-12-31T03:44:35.737Z,0.00
2018-12-31T03:45:35.880Z,0.00
2018-12-31T03:46:36.027Z,0.00
2018-12-31T03:47:36.175Z,0.00
2018-12-31T03:48:36.320Z,0.00
2018-12-31T03:49:36.468Z,0.00
2018-12-31T03:50:36.612Z,0.00
2018-12-31T03:51:36.761Z,0.00
2018-12-31T03:52:36.907Z,0.00
2018-12-31T03:53:37.054Z,0.00
2018-12-31T03:54:37.198Z,0.00
2018-12-31T03:55:37.343Z,0.00
2018-12-31T03:56:37.487Z,0.00
2018-12-31T03:57:37.638Z,0.00
2018-12-31T03:58:37.783Z,0.00
2018-12-31T03:59:37.930Z,0.00
2018-12-31T04:00:38.073Z,0.00
2018-12-31T04:01:38.221Z,0.00
2018-12-31T04:02:38.370Z,0.00
2018-12-31T04:03:38.517Z,0.00
2018-12-31T04:04:38.664Z,0.00
2018-12-31T04:05:38.825Z,0.00
2018-12-31T04:06:38.955Z,0.00
2018-12-31T04:07:39.100Z,0.00
2018-12-31T04:08:39.247Z,0.00
2018-12-31T04:09:39.393Z,0.00
2018-12-31T04:10:39.537Z,0.00
2018-12-31T04:11:39.686Z,0.00
2018-12-31T04:12:39.832Z,0.00
2018-12-31T04:13:39.978Z,0.00
2018-12-31T04:14:40.123Z,0.00
2018-12-31T04:15:40.272Z,0.00
2018-12-31T04:16:40.412Z,0.00
2018-12-31T04:17:40.561Z,0.00
2018-12-31T04:18:40.706Z,0.00
2018-12-31T04:19:40.854Z,0.00
2018-12-31T04:20:41.000Z,0.00
2018-12-31T04:21:41.145Z,0.00
2018-12-31T04:22:41.290Z,0.00
2018-12-31T04:23:41.434Z,0.00
2018-12-31T04:24:41.583Z,0.00
2018-12-31T04:25:41.730Z,0.00
2018-12-31T04:26:41.875Z,0.00
2018-12-31T04:27:42.022Z,0.00
2018-12-31T04:28:42.175Z,0.00
2018-12-31T04:29:42.311Z,0.00
2018-12-31T04:30:42.459Z,0.00
2018-12-31T04:31:42.602Z,0.00
2018-12-31T04:32:42.752Z,0.00
2018-12-31T04:33:42.908Z,0.00
2018-12-31T04:34:43.043Z,0.00
2018-12-31T04:35:43.190Z,0.00
2018-12-31T04:36:43.337Z,0.00
2018-12-31T04:37:43.482Z,0.00
2018-12-31T04:38:43.628Z,0.00
2018-12-31T04:39:43.773Z,0.00
2018-12-31T04:40:43.918Z,0.00
2018-12-31T04:41:44.064Z,0.00
2018-12-31T04:42:44.208Z,0.00
2018-12-31T04:43:44.354Z,0.00
2018-12-31T04:44:44.502Z,0.00
2018-12-31T04:45:44.650Z,0.00
2018-12-31T04:46:44.796Z,0.00
2018-12-31T04:47:44.938Z,0.00
2018-12-31T04:48:45.089Z,0.00
2018-12-31T04:49:45.241Z,0.00
2018-12-31T04:50:45.377Z,0.00
2018-12-31T04:51:45.520Z,0.00
2018-12-31T04:52:45.672Z,0.00
2018-12-31T04:53:45.820Z,0.00
2018-12-31T04:54:45.963Z,0.00
2018-12-31T04:55:46.109Z,0.00
2018-12-31T04:56:46.256Z,0.00
2018-12-31T04:57:46.411Z,0.00
2018-12-31T04:58:46.573Z,0.00
2018-12-31T04:59:46.695Z,0.00
2018-12-31T05:00:46.839Z,0.00
2018-12-31T05:01:47.064Z,0.00
2018-12-31T05:02:47.136Z,0.00
2018-12-31T05:03:47.280Z,0.00
2018-12-31T05:04:47.429Z,0.00
2018-12-31T05:05:47.572Z,0.00
2018-12-31T05:06:47.718Z,0.00
2018-12-31T05:07:47.865Z,0.00
2018-12-31T05:08:48.011Z,0.00
2018-12-31T05:09:48.154Z,0.00
2018-12-31T05:10:48.300Z,0.00
2018-12-31T05:11:49.916Z,0.00
2018-12-31T05:12:48.594Z,0.00
2018-12-31T05:13:48.738Z,0.00
2018-12-31T05:14:48.885Z,0.00
2018-12-31T05:15:49.032Z,0.00
2018-12-31T05:16:49.257Z,0.00
2018-12-31T05:17:49.327Z,0.00
2018-12-31T05:18:49.468Z,0.00
2018-12-31T05:19:49.614Z,0.00
2018-12-31T05:20:49.761Z,0.00
2018-12-31T05:21:49.989Z,0.00
2018-12-31T05:22:50.054Z,0.00
2018-12-31T05:23:50.198Z,0.00
2018-12-31T05:24:50.347Z,0.00
2018-12-31T05:25:50.491Z,0.00
2018-12-31T05:26:50.640Z,0.00
2018-12-31T05:27:50.781Z,0.00
2018-12-31T05:28:50.928Z,0.00
2018-12-31T05:29:51.071Z,0.00
2018-12-31T05:30:51.215Z,0.00
2018-12-31T05:31:51.363Z,0.00
2018-12-31T05:32:51.508Z,0.00
2018-12-31T05:33:51.653Z,0.00
2018-12-31T05:34:51.879Z,0.00
2018-12-31T05:35:51.947Z,0.00
2018-12-31T05:36:52.099Z,0.00
2018-12-31T05:37:52.274Z,0.00
2018-12-31T05:38:52.427Z,0.00
2018-12-31T05:39:52.538Z,0.00
2018-12-31T05:40:52.677Z,0.00
2018-12-31T05:41:52.824Z,0.00
2018-12-31T05:42:52.971Z,0.00
2018-12-31T05:43:53.117Z,0.00
2018-12-31T05:44:53.265Z,0.00
2018-12-31T05:45:53.410Z,0.00
2018-12-31T05:46:53.558Z,0.00
2018-12-31T05:47:53.702Z,0.00
2018-12-31T05:48:53.848Z,0.00
2018-12-31T05:49:53.997Z,0.00
2018-12-31T05:50:54.137Z,0.00
2018-12-31T05:51:54.283Z,0.00
2018-12-31T05:52:54.430Z,0.00
2018-12-31T05:53:54.581Z,0.00
2018-12-31T05:54:54.724Z,0.00
2018-12-31T05:55:54.871Z,0.00
2018-12-31T05:56:55.016Z,0.00
2018-12-31T05:57:55.163Z,0.00
2018-12-31T05:58:55.307Z,0.00
2018-12-31T05:59:55.452Z,0.00
2018-12-31T06:00:55.600Z,0.00
2018-12-31T06:01:55.745Z,0.00
2018-12-31T06:02:55.891Z,0.00
2018-12-31T06:03:56.039Z,0.00
2018-12-31T06:04:56.183Z,0.00
2018-12-31T06:05:56.332Z,0.00
2018-12-31T06:06:56.479Z,0.00
2018-12-31T06:07:56.622Z,0.00
2018-12-31T06:08:56.770Z,0.00
2018-12-31T06:09:56.915Z,0.00
2018-12-31T06:10:57.061Z,0.00
2018-12-31T06:11:57.208Z,0.00
2018-12-31T06:12:57.350Z,0.00
2018-12-31T06:13:57.496Z,0.00
2018-12-31T06:14:57.641Z,0.00
2018-12-31T06:15:57.788Z,0.00
2018-12-31T06:16:57.932Z,0.00
2018-12-31T06:17:58.081Z,0.00
2018-12-31T06:18:58.227Z,0.00
2018-12-31T06:19:58.374Z,0.00
2018-12-31T06:20:58.519Z,0.00
2018-12-31T06:21:58.664Z,0.00
2018-12-31T06:22:58.816Z,0.00
2018-12-31T06:23:58.955Z,0.00
2018-12-31T06:24:59.106Z,0.00
2018-12-31T06:25:59.247Z,0.00
2018-12-31T06:26:59.395Z,0.00
2018-12-31T06:27:59.540Z,0.00
2018-12-31T06:28:59.689Z,0.00
2018-12-31T06:29:59.835Z,0.00
2018-12-31T06:30:59.978Z,0.00
2018-12-31T06:32:00.126Z,0.00
2018-12-31T06:33:00.273Z,0.00
2018-12-31T06:34:00.419Z,0.00
2018-12-31T06:35:00.577Z,0.00
2018-12-31T06:36:00.717Z,0.00
2018-12-31T06:37:00.860Z,0.00
2018-12-31T06:38:01.005Z,0.00
2018-12-31T06:39:01.157Z,0.00
2018-12-31T06:40:01.300Z,0.00
2018-12-31T06:41:01.444Z,0.00
2018-12-31T06:42:01.590Z,0.00
2018-12-31T06:43:01.739Z,0.00
2018-12-31T06:44:01.884Z,0.00
2018-12-31T06:45:02.030Z,0.00
2018-12-31T06:46:02.175Z,0.00
2018-12-31T06:47:02.326Z,0.00
2018-12-31T06:48:02.467Z,0.00
2018-12-31T06:49:02.615Z,0.00
2018-12-31T06:50:02.765Z,0.00
2018-12-31T06:51:02.909Z,0.00
2018-12-31T06:52:03.055Z,0.00
2018-12-31T06:53:03.202Z,0.00
2018-12-31T06:54:03.351Z,4.00
2018-12-31T06:55:03.495Z,4.00
2018-12-31T06:56:03.641Z,0.00
2018-12-31T06:57:03.785Z,4.00
2018-12-31T06:58:03.936Z,4.00
2018-12-31T06:59:04.081Z,4.00
2018-12-31T07:00:04.229Z,4.00
2018-12-31T07:01:04.374Z,4.00
2018-12-31T07:02:04.519Z,8.00
2018-12-31T07:03:04.668Z,8.00
2018-12-31T07:04:04.921Z,12.00
2018-12-31T07:05:04.962Z,12.00
2018-12-31T07:06:05.113Z,12.00
2018-12-31T07:07:05.258Z,16.00
2018-12-31T07:08:05.407Z,16.00
2018-12-31T07:09:05.553Z,20.00
2018-12-31T07:10:05.703Z,20.00
2018-12-31T07:11:05.849Z,24.00
2018-12-31T07:12:05.993Z,24.00
2018-12-31T07:13:06.140Z,24.00
2018-12-31T07:14:06.286Z,28.00
2018-12-31T07:15:06.434Z,32.00
2018-12-31T07:16:06.584Z,36.00
2018-12-31T07:17:06.727Z,40.00
2018-12-31T07:18:06.874Z,48.00
2018-12-31T07:19:07.021Z,52.00
2018-12-31T07:20:07.166Z,52.00
2018-12-31T07:21:07.313Z,56.00
2018-12-31T07:22:07.463Z,60.00
2018-12-31T07:23:07.605Z,68.00
2018-12-31T07:24:07.753Z,72.00
2018-12-31T07:25:07.900Z,80.00
2018-12-31T07:26:08.049Z,88.00
2018-12-31T07:27:08.193Z,96.00
2018-12-31T07:28:08.340Z,104.00
2018-12-31T07:29:08.488Z,116.00
2018-12-31T07:30:08.638Z,124.00
2018-12-31T07:31:08.780Z,136.00
2018-12-31T07:32:08.927Z,136.00
2018-12-31T07:33:09.075Z,148.00
2018-12-31T07:34:09.221Z,164.00
2018-12-31T07:35:09.367Z,172.00
2018-12-31T07:36:09.521Z,176.00
2018-12-31T07:37:09.660Z,180.00
2018-12-31T07:38:09.806Z,188.00
2018-12-31T07:39:09.955Z,192.00
2018-12-31T07:40:10.102Z,188.00
2018-12-31T07:41:10.249Z,192.00
2018-12-31T07:42:10.395Z,196.00
2018-12-31T07:43:10.543Z,208.00
2018-12-31T07:44:10.692Z,236.00
2018-12-31T07:45:10.837Z,276.00
2018-12-31T07:46:10.988Z,316.00
2018-12-31T07:47:11.133Z,384.00
2018-12-31T07:48:11.280Z,412.00
2018-12-31T07:49:11.426Z,424.00
2018-12-31T07:50:11.574Z,440.00
2018-12-31T07:51:11.722Z,448.00
2018-12-31T07:52:11.871Z,460.00
2018-12-31T07:53:12.015Z,480.00
2018-12-31T07:54:12.163Z,476.00
2018-12-31T07:55:12.311Z,468.00
2018-12-31T07:56:12.459Z,492.00
2018-12-31T07:57:12.606Z,496.00
2018-12-31T07:58:12.754Z,480.00
2018-12-31T07:59:12.901Z,472.00
2018-12-31T08:00:13.050Z,472.00
2018-12-31T08:01:13.197Z,456.00
2018-12-31T08:02:13.345Z,440.00
2018-12-31T08:03:13.495Z,436.00
2018-12-31T08:04:13.639Z,464.00
2018-12-31T08:05:13.784Z,536.00
2018-12-31T08:06:13.932Z,572.00
2018-12-31T08:07:14.081Z,584.00
2018-12-31T08:08:14.231Z,620.00
2018-12-31T08:09:14.378Z,656.00
2018-12-31T08:10:14.526Z,640.00
2018-12-31T08:11:14.673Z,652.00
2018-12-31T08:12:14.820Z,716.00
2018-12-31T08:13:14.968Z,740.00
2018-12-31T08:14:15.113Z,752.00
2018-12-31T08:15:15.261Z,792.00
2018-12-31T08:16:15.407Z,796.00
2018-12-31T08:17:15.553Z,848.00
2018-12-31T08:18:15.702Z,896.00
2018-12-31T08:19:15.848Z,936.00
2018-12-31T08:20:15.998Z,996.00
2018-12-31T08:21:16.145Z,1096.00
2018-12-31T08:22:16.292Z,1144.00
2018-12-31T08:23:16.439Z,1204.00
2018-12-31T08:24:16.585Z,1316.00
2018-12-31T08:25:16.733Z,1416.00
2018-12-31T08:26:16.880Z,1460.00
2018-12-31T08:27:17.030Z,1492.00
2018-12-31T08:28:17.177Z,1500.00
2018-12-31T08:29:17.325Z,1496.00
2018-12-31T08:30:18.903Z,1468.00
2018-12-31T08:31:17.618Z,1484.00
2018-12-31T08:32:17.765Z,1572.00
2018-12-31T08:33:17.913Z,1608.00
2018-12-31T08:34:18.060Z,1612.00
2018-12-31T08:35:18.209Z,1544.00
2018-12-31T08:36:18.360Z,1488.00
2018-12-31T08:37:18.501Z,1476.00
2018-12-31T08:38:18.653Z,1572.00
2018-12-31T08:39:18.798Z,1620.00
2018-12-31T08:40:18.947Z,1716.00
2018-12-31T08:41:19.092Z,1824.00
2018-12-31T08:42:19.239Z,1936.00
2018-12-31T08:43:19.387Z,2032.00
2018-12-31T08:44:19.536Z,2132.00
2018-12-31T08:45:19.682Z,2296.00
2018-12-31T08:46:19.828Z,2384.00
2018-12-31T08:47:19.975Z,2396.00
2018-12-31T08:48:20.123Z,2420.00
2018-12-31T08:49:20.269Z,2464.00
2018-12-31T08:50:20.423Z,2456.00
2018-12-31T08:51:20.577Z,2504.00
2018-12-31T08:52:20.718Z,2576.00
2018-12-31T08:53:20.863Z,2624.00
2018-12-31T08:54:21.014Z,2676.00
2018-12-31T08:55:21.165Z,2672.00
2018-12-31T08:56:21.332Z,2672.00
2018-12-31T08:57:21.444Z,2568.00
2018-12-31T08:58:21.591Z,2408.00
2018-12-31T08:59:21.741Z,2248.00
2018-12-31T09:00:21.885Z,2204.00
2018-12-31T09:01:22.035Z,2164.00
2018-12-31T09:02:22.199Z,2216.00
2018-12-31T09:03:22.335Z,2324.00
2018-12-31T09:04:22.493Z,2368.00
2018-12-31T09:05:22.645Z,2340.00
2018-12-31T09:06:22.792Z,2316.00
2018-12-31T09:07:22.940Z,2252.00
2018-12-31T09:08:23.088Z,2212.00
2018-12-31T09:09:23.239Z,2216.00
2018-12-31T09:10:23.382Z,2244.00
2018-12-31T09:11:23.536Z,2244.00
2018-12-31T09:12:23.682Z,2288.00
2018-12-31T09:13:23.832Z,2236.00
2018-12-31T09:14:23.976Z,2228.00
2018-12-31T09:15:24.124Z,2436.00
2018-12-31T09:16:24.277Z,2860.00
2018-12-31T09:17:24.435Z,3028.00
2018-12-31T09:18:24.581Z,2956.00
2018-12-31T09:19:24.727Z,2924.00
2018-12-31T09:20:24.876Z,3124.00
2018-12-31T09:21:25.027Z,3348.00
2018-12-31T09:22:25.172Z,3348.00
2018-12-31T09:23:25.319Z,3356.00
2018-12-31T09:24:25.466Z,3400.00
2018-12-31T09:25:25.615Z,3440.00
2018-12-31T09:26:25.762Z,3476.00
2018-12-31T09:27:25.907Z,3508.00
2018-12-31T09:28:26.059Z,3564.00
2018-12-31T09:29:26.213Z,3532.00
2018-12-31T09:30:26.354Z,3512.00
2018-12-31T09:31:26.500Z,3388.00
2018-12-31T09:32:26.721Z,3260.00
2018-12-31T09:33:26.794Z,3188.00
2018-12-31T09:34:26.946Z,3180.00
2018-12-31T09:35:27.094Z,3236.00
2018-12-31T09:36:27.238Z,3492.00
2018-12-31T09:37:27.387Z,3828.00
2018-12-31T09:38:27.534Z,4240.00
2018-12-31T09:39:27.681Z,4540.00
2018-12-31T09:40:27.829Z,4636.00
2018-12-31T09:41:27.978Z,4772.00
2018-12-31T09:42:28.128Z,4564.00
2018-12-31T09:43:28.275Z,4636.00
2018-12-31T09:44:28.424Z,4932.00
2018-12-31T09:45:28.577Z,4748.00
2018-12-31T09:46:28.722Z,3928.00
2018-12-31T09:47:28.868Z,3536.00
2018-12-31T09:48:29.015Z,3504.00
2018-12-31T09:49:29.161Z,3504.00
2018-12-31T09:50:29.311Z,3544.00
2018-12-31T09:51:29.456Z,3388.00
2018-12-31T09:52:29.606Z,3392.00
2018-12-31T09:53:29.753Z,3436.00
2018-12-31T09:54:29.900Z,3620.00
2018-12-31T09:55:30.050Z,3816.00
2018-12-31T09:56:30.196Z,4240.00
2018-12-31T09:57:30.345Z,4564.00
2018-12-31T09:58:30.495Z,4952.00
2018-12-31T09:59:30.640Z,5252.00
2018-12-31T10:00:30.789Z,5132.00
2018-12-31T10:01:30.938Z,4628.00
2018-12-31T10:02:31.087Z,4256.00
2018-12-31T10:03:31.236Z,3952.00
2018-12-31T10:04:31.383Z,3964.00
2018-12-31T10:05:31.529Z,4256.00
2018-12-31T10:06:31.712Z,4552.00
2018-12-31T10:07:31.823Z,4428.00
2018-12-31T10:08:31.969Z,4092.00
2018-12-31T10:09:32.120Z,3832.00
2018-12-31T10:10:32.266Z,3884.00
2018-12-31T10:11:32.412Z,3988.00
2018-12-31T10:12:32.563Z,4232.00
2018-12-31T10:13:32.712Z,4588.00
2018-12-31T10:14:32.859Z,4768.00
2018-12-31T10:15:33.005Z,4780.00
2018-12-31T10:16:33.153Z,4884.00
2018-12-31T10:17:33.317Z,4956.00
2018-12-31T10:18:33.454Z,4988.00
2018-12-31T10:19:33.600Z,5076.00
2018-12-31T10:20:33.748Z,5184.00
2018-12-31T10:21:40.772Z,4980.00
2018-12-31T10:22:34.046Z,4920.00
2018-12-31T10:23:34.193Z,4836.00
2018-12-31T10:24:34.339Z,4824.00
2018-12-31T10:25:34.489Z,4668.00
2018-12-31T10:26:34.640Z,4592.00
2018-12-31T10:27:34.789Z,4488.00
2018-12-31T10:28:34.941Z,4400.00
2018-12-31T10:29:36.238Z,4404.00
2018-12-31T10:30:35.271Z,4304.00
2018-12-31T10:31:35.386Z,4096.00
2018-12-31T10:32:35.539Z,3800.00
2018-12-31T10:33:35.685Z,3576.00
2018-12-31T10:34:35.834Z,3420.00
2018-12-31T10:35:35.982Z,3260.00
2018-12-31T10:36:36.115Z,3360.00
2018-12-31T10:37:36.278Z,3872.00
2018-12-31T10:38:36.429Z,4720.00
2018-12-31T10:39:36.576Z,5400.00
2018-12-31T10:40:36.725Z,5344.00
2018-12-31T10:41:36.870Z,5508.00
2018-12-31T10:42:37.019Z,5412.00
2018-12-31T10:43:37.164Z,5340.00
2018-12-31T10:44:37.313Z,5256.00
2018-12-31T10:45:37.465Z,5160.00
2018-12-31T10:46:37.609Z,5156.00
2018-12-31T10:47:37.755Z,5192.00
2018-12-31T10:48:37.906Z,5488.00
2018-12-31T10:49:38.053Z,5100.00
2018-12-31T10:50:38.208Z,5120.00
2018-12-31T10:51:38.354Z,5092.00
2018-12-31T10:52:38.503Z,5500.00
2018-12-31T10:53:38.653Z,5356.00
2018-12-31T10:54:38.805Z,5224.00
2018-12-31T10:55:38.954Z,4964.00
2018-12-31T10:56:39.104Z,5052.00
2018-12-31T10:57:39.254Z,5292.00
2018-12-31T10:58:39.401Z,5408.00
2018-12-31T10:59:39.553Z,5184.00
2018-12-31T11:00:39.700Z,5116.00
2018-12-31T11:01:39.848Z,5016.00
2018-12-31T11:02:39.997Z,5028.00
2018-12-31T11:03:41.977Z,4888.00
2018-12-31T11:04:40.295Z,4772.00
2018-12-31T11:05:40.447Z,4996.00
2018-12-31T11:06:40.598Z,5104.00
2018-12-31T11:07:40.747Z,5020.00
2018-12-31T11:08:40.895Z,5048.00
2018-12-31T11:09:41.047Z,4804.00
2018-12-31T11:10:41.193Z,4964.00
2018-12-31T11:11:41.344Z,4988.00
2018-12-31T11:12:41.495Z,5192.00
2018-12-31T11:13:41.717Z,5344.00
2018-12-31T11:14:41.796Z,5548.00
2018-12-31T11:15:41.947Z,5796.00
2018-12-31T11:16:42.097Z,5964.00
2018-12-31T11:17:42.247Z,5616.00
2018-12-31T11:18:42.398Z,5580.00
2018-12-31T11:19:42.547Z,5432.00
2018-12-31T11:20:42.694Z,5052.00
2018-12-31T11:21:42.847Z,5124.00
2018-12-31T11:22:42.996Z,5184.00
2018-12-31T11:23:43.144Z,5184.00
2018-12-31T11:24:43.296Z,5112.00
2018-12-31T11:25:43.444Z,4984.00
2018-12-31T11:26:43.593Z,4840.00
2018-12-31T11:27:43.742Z,4776.00
2018-12-31T11:28:43.893Z,4644.00
2018-12-31T11:29:44.041Z,4396.00
2018-12-31T11:30:44.190Z,4124.00
2018-12-31T11:31:44.340Z,3876.00
2018-12-31T11:32:44.491Z,3520.00
2018-12-31T11:33:44.640Z,3488.00
2018-12-31T11:34:44.794Z,3864.00
2018-12-31T11:35:44.938Z,4376.00
2018-12-31T11:36:45.086Z,4472.00
2018-12-31T11:37:45.238Z,4160.00
2018-12-31T11:38:45.388Z,3920.00
2018-12-31T11:39:45.536Z,3688.00
2018-12-31T11:40:45.685Z,3380.00
2018-12-31T11:41:45.835Z,3332.00
2018-12-31T11:42:45.984Z,3484.00
2018-12-31T11:43:46.134Z,3420.00
2018-12-31T11:44:46.285Z,3308.00
2018-12-31T11:45:46.433Z,3488.00
2018-12-31T11:46:46.580Z,3064.00
2018-12-31T11:47:46.729Z,2448.00
2018-12-31T11:48:46.883Z,1980.00
2018-12-31T11:49:47.028Z,2160.00
2018-12-31T11:50:47.175Z,2752.00
2018-12-31T11:51:47.326Z,2920.00
2018-12-31T11:52:47.473Z,2888.00
2018-12-31T11:53:47.617Z,3292.00
2018-12-31T11:54:47.765Z,3284.00
2018-12-31T11:55:47.915Z,3412.00
2018-12-31T11:56:48.068Z,3592.00
2018-12-31T11:57:48.214Z,3836.00
2018-12-31T11:58:48.364Z,3808.00
2018-12-31T11:59:48.515Z,3944.00
2018-12-31T12:00:48.664Z,4384.00
2018-12-31T12:01:48.812Z,4932.00
2018-12-31T12:02:48.966Z,5068.00
2018-12-31T12:03:49.115Z,5036.00
2018-12-31T12:04:49.264Z,4488.00
2018-12-31T12:05:49.413Z,4380.00
2018-12-31T12:06:49.563Z,4820.00
2018-12-31T12:07:49.711Z,4912.00
2018-12-31T12:08:49.859Z,4944.00
2018-12-31T12:09:50.009Z,4812.00
2018-12-31T12:10:50.161Z,4700.00
2018-12-31T12:11:50.309Z,4412.00
2018-12-31T12:12:50.461Z,4412.00
2018-12-31T12:13:50.607Z,4572.00
2018-12-31T12:14:50.759Z,4900.00
2018-12-31T12:15:50.907Z,4948.00
2018-12-31T12:16:51.055Z,4976.00
2018-12-31T12:17:51.204Z,5000.00
2018-12-31T12:18:51.356Z,4904.00
2018-12-31T12:19:51.501Z,4916.00
2018-12-31T12:20:51.649Z,4864.00
2018-12-31T12:21:51.800Z,4716.00
2018-12-31T12:22:51.948Z,4412.00
2018-12-31T12:23:52.166Z,3964.00
2018-12-31T12:24:52.250Z,3500.00
2018-12-31T12:25:54.118Z,3088.00
2018-12-31T12:26:52.649Z,2808.00
2018-12-31T12:27:52.767Z,2600.00
2018-12-31T12:28:52.897Z,2544.00
2018-12-31T12:29:52.996Z,2584.00
2018-12-31T12:30:53.115Z,2596.00
2018-12-31T12:31:53.253Z,2488.00
2018-12-31T12:32:53.317Z,2348.00
2018-12-31T12:33:53.470Z,2356.00
2018-12-31T12:34:53.640Z,2472.00
2018-12-31T12:35:53.792Z,2772.00
2018-12-31T12:36:53.987Z,2876.00
2018-12-31T12:37:54.139Z,2740.00
2018-12-31T12:38:56.053Z,2476.00
2018-12-31T12:39:54.449Z,2268.00
2018-12-31T12:40:54.679Z,2068.00
2018-12-31T12:41:54.695Z,1868.00
2018-12-31T12:42:54.847Z,1740.00
2018-12-31T12:43:55.062Z,1848.00
2018-12-31T12:44:55.093Z,1988.00
2018-12-31T12:45:55.241Z,2056.00
2018-12-31T12:46:55.387Z,2148.00
2018-12-31T12:47:55.542Z,2272.00
2018-12-31T12:48:55.688Z,2328.00